This is the latest recevied weather packets stored in our database for station/object KG7DQI-13. If no packets are shown the sender has not sent any weather packets the latest 10 day(s).
| Time | Temp. | Humidity | Pressure | Rain* | Wind** | Luminosity | Snow |
|---|---|---|---|---|---|---|---|
| 1777395314 | 12.22° C | 46% | 918.3 hPa | 0 mm | - | 663 W/m² | - |
| 1777394419 | 11.11° C | 46% | 918.4 hPa | 0 mm | - | 531 W/m² | - |
| 1777393556 | 11.11° C | 46% | 918.7 hPa | 0 mm | - | 445 W/m² | - |
| 1777392695 | 10.56° C | 49% | 918.8 hPa | 0 mm | - | 399 W/m² | - |
| 1777391796 | 10.56° C | 49% | 918.8 hPa | 0 mm | - | 480 W/m² | - |
| 1777390924 | 10.56° C | 50% | 918.8 hPa | 0 mm | - | 445 W/m² | - |
| 1777390044 | 8.89° C | 52% | 918.6 hPa | 0 mm | - | 394 W/m² | - |
| 1777389139 | 6.67° C | 54% | 918.7 hPa | 0 mm | - | 339 W/m² | - |
| 1777388219 | 5° C | 60% | 918.7 hPa | 0 mm | - | 295 W/m² | - |
| 1777387349 | 2.78° C | 65% | 918.6 hPa | 0 mm | - | 248 W/m² | - |
| 1777386457 | 0.56° C | 74% | 918.6 hPa | 0 mm | - | 193 W/m² | - |
| 1777385539 | -2.78° C | 81% | 918.2 hPa | 0 mm | - | 132 W/m² | - |
| 1777384665 | -3.89° C | 81% | 918.2 hPa | 0 mm | - | 81 W/m² | - |
| 1777383729 | -5° C | 82% | 918.1 hPa | 0 mm | - | 37 W/m² | - |
| 1777382857 | -5° C | 82% | 918.1 hPa | 0 mm | - | 16 W/m² | - |
| 1777381965 | -5° C | 82% | 917.9 hPa | 0 mm | - | 7 W/m² | - |
| 1777381040 | -4.44° C | 83% | 917.8 hPa | 0 mm | - | 0 W/m² | - |
| 1777380096 | -4.44° C | 80% | 917.6 hPa | 0 mm | - | 0 W/m² | - |
| 1777379222 | -4.44° C | 81% | 917.4 hPa | 0 mm | - | 0 W/m² | - |
| 1777378327 | -4.44° C | 82% | 917.3 hPa | 0 mm | - | 0 W/m² | - |
| 1777377436 | -4.44° C | 80% | 917.2 hPa | 0 mm | - | 0 W/m² | - |
| 1777376506 | -3.89° C | 81% | 917.3 hPa | 0 mm | - | 0 W/m² | - |
| 1777375571 | -3.33° C | 81% | 917.3 hPa | 0 mm | - | 0 W/m² | - |
| 1777374647 | -3.33° C | 79% | 917.1 hPa | 0 mm | - | 0 W/m² | - |
| 1777373740 | -2.78° C | 79% | 917 hPa | 0 mm | - | 0 W/m² | - |
* Rain latest hour (hover to see other rain measurements)
** Current wind speed in m/s (hover to see current wind gust speed)